createdAt,value
2022-11-30T00:00:53.523Z,19.60
2022-11-30T00:03:22.756Z,17.93
2022-11-30T00:05:50.710Z,17.97
2022-11-30T00:08:18.628Z,18.63
2022-11-30T00:10:46.376Z,18.67
2022-11-30T00:13:14.112Z,19.90
2022-11-30T00:15:41.882Z,18.40
2022-11-30T00:18:10.497Z,18.37
2022-11-30T00:20:39.648Z,18.37
2022-11-30T00:23:09.970Z,19.83
2022-11-30T00:25:38.460Z,18.77
2022-11-30T00:28:06.327Z,17.70
2022-11-30T00:30:34.131Z,18.47
2022-11-30T00:33:01.954Z,17.23
2022-11-30T00:35:32.047Z,18.50
2022-11-30T00:38:03.914Z,18.07
2022-11-30T00:40:34.875Z,17.43
2022-11-30T00:43:02.664Z,18.33
2022-11-30T00:45:30.421Z,18.03
2022-11-30T00:47:58.190Z,18.20
2022-11-30T00:50:25.979Z,17.43
2022-11-30T00:52:53.820Z,19.47
2022-11-30T00:55:22.965Z,19.43
2022-11-30T00:57:50.878Z,18.80
2022-11-30T01:00:19.347Z,18.93
2022-11-30T01:02:47.224Z,19.67
2022-11-30T01:05:15.261Z,19.57
2022-11-30T01:07:43.149Z,20.30
2022-11-30T01:10:11.771Z,19.53
2022-11-30T01:12:40.924Z,19.37
2022-11-30T01:15:09.710Z,19.70
2022-11-30T01:17:37.432Z,19.50
2022-11-30T01:20:05.985Z,19.93
2022-11-30T01:22:33.800Z,20.87
2022-11-30T01:25:01.546Z,19.20
2022-11-30T01:27:29.388Z,21.23
2022-11-30T01:29:58.533Z,20.47
2022-11-30T01:32:26.335Z,21.03
2022-11-30T01:34:54.419Z,21.20
2022-11-30T01:37:22.342Z,21.07
2022-11-30T01:39:50.174Z,19.70
2022-11-30T01:42:20.474Z,19.57
2022-11-30T01:44:56.352Z,19.57
2022-11-30T01:47:31.148Z,19.43
2022-11-30T01:50:04.267Z,20.90
2022-11-30T01:52:36.830Z,18.20
2022-11-30T01:55:12.867Z,19.03
2022-11-30T01:57:43.594Z,18.23
2022-11-30T02:00:14.190Z,18.47
2022-11-30T02:02:50.985Z,18.53
2022-11-30T02:05:19.873Z,18.03
2022-11-30T02:07:57.517Z,18.23
2022-11-30T02:10:28.866Z,19.80
2022-11-30T02:13:38.245Z,18.10
2022-11-30T02:16:17.827Z,18.80
2022-11-30T02:18:56.959Z,18.97
2022-11-30T02:21:31.928Z,18.83
2022-11-30T02:24:20.856Z,20.10
2022-11-30T02:27:14.830Z,18.70
2022-11-30T02:29:48.310Z,20.23
2022-11-30T02:32:21.267Z,20.90
2022-11-30T02:34:50.730Z,19.00
2022-11-30T02:37:22.586Z,19.63
2022-11-30T02:39:50.386Z,19.97
2022-11-30T02:42:18.143Z,20.00
2022-11-30T02:44:50.120Z,19.73
2022-11-30T02:47:23.536Z,19.93
2022-11-30T02:49:57.161Z,21.30
2022-11-30T02:52:27.945Z,20.63
2022-11-30T02:55:00.737Z,21.40
2022-11-30T02:57:28.551Z,20.20
2022-11-30T02:59:58.441Z,21.30
2022-11-30T03:02:26.244Z,22.23
2022-11-30T03:04:54.013Z,21.53
2022-11-30T03:07:21.800Z,22.30
2022-11-30T03:09:49.593Z,22.13
2022-11-30T03:12:17.381Z,21.93
2022-11-30T03:14:45.497Z,21.07
2022-11-30T03:17:14.969Z,20.00
2022-11-30T03:19:42.812Z,20.37
2022-11-30T03:22:10.718Z,19.57
2022-11-30T03:24:38.482Z,19.33
2022-11-30T03:27:06.245Z,18.33
2022-11-30T03:29:34.083Z,16.30
2022-11-30T03:32:01.814Z,16.50
2022-11-30T03:34:30.910Z,16.23
2022-11-30T03:36:58.851Z,15.03
2022-11-30T03:39:26.607Z,15.80
2022-11-30T03:41:54.420Z,15.27
2022-11-30T03:44:22.202Z,15.40
2022-11-30T03:46:50.364Z,14.20
2022-11-30T03:49:18.346Z,15.37
2022-11-30T03:51:47.483Z,14.93
2022-11-30T03:54:15.226Z,14.90
2022-11-30T03:56:43.014Z,15.83
2022-11-30T03:59:10.747Z,15.23
2022-11-30T04:01:40.954Z,16.13
2022-11-30T04:04:08.957Z,16.37
2022-11-30T04:06:36.757Z,16.33
2022-11-30T04:09:05.995Z,15.90
2022-11-30T04:11:33.986Z,15.40
2022-11-30T04:14:01.734Z,15.13
2022-11-30T04:16:29.497Z,16.00
2022-11-30T04:18:57.267Z,15.53
2022-11-30T04:21:25.061Z,16.50
2022-11-30T04:23:52.821Z,15.17
2022-11-30T04:26:21.931Z,14.67
2022-11-30T04:28:49.681Z,13.70
2022-11-30T04:31:18.164Z,12.97
2022-11-30T04:33:45.947Z,13.57
2022-11-30T04:36:19.540Z,13.00
2022-11-30T04:38:48.383Z,12.37
2022-11-30T04:41:16.462Z,12.43
2022-11-30T04:43:45.600Z,11.80
2022-11-30T04:46:13.606Z,12.67
2022-11-30T04:48:41.431Z,12.67
2022-11-30T04:51:10.424Z,12.80
2022-11-30T04:53:39.271Z,13.93
2022-11-30T04:56:08.254Z,14.60
2022-11-30T04:58:36.602Z,14.10
2022-11-30T05:01:05.960Z,14.27
2022-11-30T05:03:33.789Z,14.70
2022-11-30T05:06:01.655Z,16.03
2022-11-30T05:08:29.397Z,15.67
2022-11-30T05:10:57.182Z,15.90
2022-11-30T05:13:26.344Z,14.90
2022-11-30T05:15:54.589Z,16.47
2022-11-30T05:18:23.812Z,16.33
2022-11-30T05:20:53.551Z,15.90
2022-11-30T05:23:21.962Z,16.53
2022-11-30T05:25:50.267Z,16.63
2022-11-30T05:28:18.061Z,17.70
2022-11-30T05:30:45.943Z,17.67
2022-11-30T05:33:13.747Z,17.47
2022-11-30T05:35:42.913Z,17.03
2022-11-30T05:38:10.761Z,17.70
2022-11-30T05:40:38.688Z,18.37
2022-11-30T05:43:06.938Z,17.80
2022-11-30T05:45:34.707Z,18.20
2022-11-30T05:48:02.511Z,17.90
2022-11-30T05:50:30.402Z,18.40
2022-11-30T05:53:00.964Z,18.33
2022-11-30T05:55:31.075Z,19.10
2022-11-30T05:57:58.922Z,18.23
2022-11-30T06:00:26.725Z,18.43
2022-11-30T06:02:58.263Z,20.23
2022-11-30T06:05:26.465Z,19.60
2022-11-30T06:07:54.430Z,18.90
2022-11-30T06:10:25.249Z,19.60
2022-11-30T06:12:53.090Z,18.47
2022-11-30T06:15:20.905Z,18.70
2022-11-30T06:17:48.733Z,18.20
2022-11-30T06:20:16.590Z,19.87
2022-11-30T06:22:47.573Z,16.63
2022-11-30T06:25:15.874Z,17.33
2022-11-30T06:27:45.024Z,17.43
2022-11-30T06:30:27.960Z,16.60
2022-11-30T06:32:55.741Z,15.97
2022-11-30T06:35:23.667Z,16.30
2022-11-30T06:37:51.444Z,16.40
2022-11-30T06:40:19.369Z,15.57
2022-11-30T06:42:48.525Z,15.67
2022-11-30T06:45:16.356Z,14.03
2022-11-30T06:47:44.071Z,14.43
2022-11-30T06:50:13.900Z,14.37
2022-11-30T06:52:41.652Z,13.60
2022-11-30T06:55:09.839Z,14.27
2022-11-30T06:57:37.626Z,14.27
2022-11-30T07:00:09.160Z,15.87
2022-11-30T07:02:37.707Z,14.70
2022-11-30T07:05:06.043Z,15.10
2022-11-30T07:07:34.007Z,16.47
2022-11-30T07:10:02.082Z,16.30
2022-11-30T07:12:29.967Z,16.30
2022-11-30T07:14:57.877Z,15.93
2022-11-30T07:17:27.033Z,16.33
2022-11-30T07:19:54.971Z,16.30
2022-11-30T07:22:22.783Z,15.87
2022-11-30T07:25:08.286Z,15.77
2022-11-30T07:27:36.099Z,16.33
2022-11-30T07:30:04.357Z,16.07
2022-11-30T07:32:33.494Z,15.60
2022-11-30T07:35:01.247Z,15.40
2022-11-30T07:37:29.177Z,15.33
2022-11-30T07:39:56.916Z,16.33
2022-11-30T07:42:24.715Z,15.53
2022-11-30T07:44:58.494Z,16.33
2022-11-30T07:47:26.856Z,15.90
2022-11-30T07:49:55.990Z,15.03
2022-11-30T07:52:23.942Z,15.70
2022-11-30T07:54:51.751Z,14.97
2022-11-30T07:57:19.537Z,16.23
2022-11-30T07:59:47.662Z,15.03
2022-11-30T08:02:15.782Z,15.57
2022-11-30T08:04:43.739Z,16.33
2022-11-30T08:07:12.893Z,16.47
2022-11-30T08:09:40.654Z,16.27
2022-11-30T08:12:09.233Z,19.60
2022-11-30T08:14:56.455Z,15.60
2022-11-30T08:17:24.825Z,15.00
2022-11-30T08:19:52.622Z,15.37
2022-11-30T08:22:21.804Z,14.70
2022-11-30T08:24:49.940Z,14.30
2022-11-30T08:27:17.913Z,15.40
2022-11-30T08:29:45.694Z,15.40
2022-11-30T08:32:13.522Z,16.00
2022-11-30T08:34:41.258Z,15.97
2022-11-30T08:37:09.333Z,17.10
2022-11-30T08:39:38.980Z,17.47
2022-11-30T08:42:06.839Z,16.73
2022-11-30T08:44:34.628Z,18.53
2022-11-30T08:47:02.595Z,17.37
2022-11-30T08:49:30.904Z,17.13
2022-11-30T08:54:49.241Z,11.50
2022-11-30T08:57:18.755Z,13.00
2022-11-30T08:59:48.416Z,15.40
2022-11-30T09:02:18.639Z,15.63
2022-11-30T09:04:49.192Z,14.40
2022-11-30T09:07:17.762Z,15.13
2022-11-30T09:09:47.307Z,16.87
2022-11-30T09:12:15.217Z,17.90
2022-11-30T09:14:43.116Z,15.67
2022-11-30T09:17:11.016Z,15.67
2022-11-30T09:19:38.792Z,22.03
2022-11-30T09:22:06.600Z,14.93
2022-11-30T09:24:34.409Z,14.97
2022-11-30T09:27:03.574Z,15.80
2022-11-30T09:29:31.294Z,16.83
2022-11-30T09:31:59.050Z,16.20
2022-11-30T09:34:26.806Z,16.70
2022-11-30T09:36:54.560Z,16.47
2022-11-30T09:39:22.495Z,15.90
2022-11-30T09:42:23.994Z,15.87
2022-11-30T09:45:01.209Z,15.70
2022-11-30T09:47:43.637Z,15.70
2022-11-30T09:50:14.952Z,14.80
2022-11-30T09:52:46.022Z,16.63
2022-11-30T09:55:19.246Z,18.83
2022-11-30T09:57:49.822Z,19.73
2022-11-30T10:00:21.773Z,18.73
2022-11-30T10:02:50.948Z,19.10
2022-11-30T10:05:22.129Z,19.13
2022-11-30T10:08:04.345Z,22.03
2022-11-30T10:10:40.128Z,18.60
2022-11-30T10:13:24.342Z,18.67
2022-11-30T10:16:04.226Z,17.30
2022-11-30T10:18:43.414Z,17.63
2022-11-30T10:21:24.793Z,18.60
2022-11-30T10:24:04.429Z,17.87
2022-11-30T10:26:35.273Z,21.97
2022-11-30T10:29:15.882Z,25.40
2022-11-30T10:31:48.386Z,19.17
2022-11-30T10:34:21.643Z,17.67
2022-11-30T10:36:55.141Z,17.53
2022-11-30T10:39:29.647Z,17.37
2022-11-30T10:42:02.917Z,16.67
2022-11-30T10:44:34.551Z,17.17
2022-11-30T10:47:12.136Z,16.67
2022-11-30T10:49:44.151Z,16.83
2022-11-30T10:52:18.017Z,15.90
2022-11-30T10:54:46.091Z,15.80
2022-11-30T10:57:15.504Z,14.97
2022-11-30T10:59:47.741Z,16.37
2022-11-30T11:02:39.212Z,15.20
2022-11-30T11:05:16.684Z,14.57
2022-11-30T11:07:51.624Z,15.10
2022-11-30T11:10:21.581Z,14.53
2022-11-30T11:12:51.444Z,13.17
2022-11-30T11:15:22.661Z,13.87
2022-11-30T11:17:53.005Z,13.30
2022-11-30T11:20:34.491Z,13.43
2022-11-30T11:23:03.911Z,12.90
2022-11-30T11:25:35.584Z,13.50
2022-11-30T11:28:09.616Z,12.13
2022-11-30T11:30:38.554Z,13.70
2022-11-30T11:33:21.393Z,13.63
2022-11-30T11:35:50.607Z,13.60
2022-11-30T11:38:23.965Z,13.83
2022-11-30T11:41:02.151Z,14.47
2022-11-30T11:43:32.266Z,14.07
2022-11-30T11:46:02.857Z,14.03
2022-11-30T11:48:36.089Z,14.30
2022-11-30T11:51:08.147Z,13.83
2022-11-30T11:53:53.398Z,13.40
2022-11-30T11:56:26.246Z,14.10
2022-11-30T11:58:59.748Z,13.40
2022-11-30T12:01:58.508Z,15.03
2022-11-30T12:04:43.852Z,13.30
2022-11-30T12:07:24.082Z,12.33
2022-11-30T12:10:00.911Z,13.57
2022-11-30T12:12:29.033Z,12.63
2022-11-30T12:14:58.009Z,12.70
2022-11-30T12:17:38.605Z,12.43
2022-11-30T12:20:21.686Z,11.83
2022-11-30T12:23:06.968Z,10.40
2022-11-30T12:25:39.725Z,10.13
2022-11-30T12:28:21.159Z,10.50
2022-11-30T12:31:00.055Z,11.17
2022-11-30T12:33:40.485Z,10.90
2022-11-30T12:36:19.068Z,11.90
2022-11-30T12:38:50.742Z,11.77
2022-11-30T12:41:31.179Z,12.57
2022-11-30T12:44:12.769Z,12.80
2022-11-30T12:46:50.685Z,13.83
2022-11-30T12:49:34.512Z,13.33
2022-11-30T12:52:18.226Z,14.63
2022-11-30T12:54:55.556Z,15.73
2022-11-30T12:57:28.947Z,16.00
2022-11-30T13:00:29.646Z,16.63
2022-11-30T13:03:13.730Z,17.63
2022-11-30T13:05:45.012Z,17.53
2022-11-30T13:08:21.207Z,16.27
2022-11-30T13:10:57.275Z,16.20
2022-11-30T13:13:30.023Z,16.40
2022-11-30T13:15:59.986Z,15.83
2022-11-30T13:18:28.410Z,15.63
2022-11-30T13:21:06.639Z,13.73
2022-11-30T13:23:41.371Z,13.97
2022-11-30T13:26:18.039Z,12.33
2022-11-30T13:29:04.535Z,12.57
2022-11-30T13:31:37.664Z,13.00
2022-11-30T13:34:05.559Z,12.83
2022-11-30T13:36:37.968Z,12.23
2022-11-30T13:39:25.914Z,12.37
2022-11-30T13:42:30.072Z,12.17
2022-11-30T13:44:58.572Z,12.93
2022-11-30T13:47:31.923Z,13.67
2022-11-30T13:50:01.995Z,13.77
2022-11-30T13:53:09.038Z,14.13
2022-11-30T13:55:57.795Z,14.77
2022-11-30T13:58:27.599Z,14.90
2022-11-30T14:01:18.603Z,14.63
2022-11-30T14:04:06.399Z,14.53
2022-11-30T14:06:50.508Z,13.90
2022-11-30T14:09:38.812Z,14.57
2022-11-30T14:12:37.483Z,13.10
2022-11-30T14:15:31.795Z,13.77
2022-11-30T14:18:00.067Z,13.33
2022-11-30T14:20:37.804Z,12.73
2022-11-30T14:23:09.320Z,13.50
2022-11-30T14:25:37.695Z,13.03
2022-11-30T14:28:06.634Z,12.10
2022-11-30T14:30:35.415Z,12.37
2022-11-30T14:33:15.288Z,12.50
2022-11-30T14:35:52.152Z,12.97
2022-11-30T14:38:26.193Z,13.13
2022-11-30T14:40:55.381Z,12.63
2022-11-30T14:43:23.608Z,13.80
2022-11-30T14:46:04.588Z,14.23
2022-11-30T14:48:33.612Z,14.53
2022-11-30T14:51:04.333Z,15.90
2022-11-30T14:53:44.656Z,15.53
2022-11-30T14:56:23.156Z,15.87
2022-11-30T14:58:56.830Z,22.07
2022-11-30T15:01:27.110Z,16.43
2022-11-30T15:03:57.755Z,14.73
2022-11-30T15:06:31.738Z,16.23
2022-11-30T15:09:03.022Z,15.63
2022-11-30T15:11:31.013Z,16.20
2022-11-30T15:14:09.341Z,19.17
2022-11-30T15:16:37.665Z,25.33
2022-11-30T15:19:21.849Z,18.03
2022-11-30T15:21:50.974Z,17.10
2022-11-30T15:24:20.779Z,18.00
2022-11-30T15:26:56.007Z,23.60
2022-11-30T15:29:27.951Z,18.60
2022-11-30T15:31:57.508Z,19.93
2022-11-30T15:34:39.913Z,21.00
2022-11-30T15:37:08.176Z,20.07
2022-11-30T15:39:37.355Z,18.57
2022-11-30T15:42:06.284Z,18.50
2022-11-30T15:44:41.330Z,18.57
2022-11-30T15:47:26.200Z,18.80
2022-11-30T15:49:56.039Z,18.07
2022-11-30T15:52:27.573Z,19.73
2022-11-30T15:54:58.834Z,18.37
2022-11-30T15:57:28.622Z,23.17
2022-11-30T16:00:20.063Z,20.10
2022-11-30T16:02:47.947Z,19.43
2022-11-30T16:05:27.777Z,19.53
2022-11-30T16:07:57.307Z,19.57
2022-11-30T16:10:30.181Z,19.80
2022-11-30T16:12:57.973Z,18.70
2022-11-30T16:15:27.987Z,18.70
2022-11-30T16:18:00.625Z,19.97
2022-11-30T16:20:28.427Z,18.97
2022-11-30T16:22:58.877Z,19.73
2022-11-30T16:25:31.695Z,18.40
2022-11-30T16:27:59.578Z,19.67
2022-11-30T16:30:27.405Z,20.37
2022-11-30T16:32:55.270Z,19.23
2022-11-30T16:35:26.180Z,18.97
2022-11-30T16:37:53.930Z,19.23
2022-11-30T16:40:21.690Z,20.80
2022-11-30T16:42:51.865Z,19.30
2022-11-30T16:45:22.756Z,19.40
2022-11-30T16:47:51.255Z,19.07
2022-11-30T16:50:20.440Z,19.43
2022-11-30T16:52:48.261Z,19.33
2022-11-30T16:55:17.546Z,20.07
2022-11-30T16:57:46.341Z,20.17
2022-11-30T17:00:20.560Z,20.33
2022-11-30T17:02:53.711Z,20.53
2022-11-30T17:05:21.727Z,19.63
2022-11-30T17:07:49.571Z,19.33
2022-11-30T17:10:17.735Z,18.50
2022-11-30T17:12:45.905Z,19.90
2022-11-30T17:15:18.980Z,19.03
2022-11-30T17:17:46.866Z,19.67
2022-11-30T17:20:16.477Z,18.63
2022-11-30T17:22:45.355Z,19.87
2022-11-30T17:25:16.769Z,19.03
2022-11-30T17:27:45.375Z,19.90
2022-11-30T17:30:16.454Z,20.00
2022-11-30T17:32:44.963Z,18.83
2022-11-30T17:35:12.940Z,19.07
2022-11-30T17:37:40.712Z,20.13
2022-11-30T17:40:12.803Z,20.70
2022-11-30T17:42:41.358Z,19.70
2022-11-30T17:45:10.263Z,19.73
2022-11-30T17:47:39.573Z,19.20
2022-11-30T17:50:08.992Z,19.77
2022-11-30T17:52:36.760Z,19.37
2022-11-30T17:55:04.853Z,17.70
2022-11-30T17:57:32.673Z,17.80
2022-11-30T18:00:00.445Z,19.07
2022-11-30T18:02:28.261Z,19.50
2022-11-30T18:04:57.425Z,19.13
2022-11-30T18:07:25.219Z,19.23
2022-11-30T18:09:53.020Z,18.47
2022-11-30T18:12:20.766Z,18.73
2022-11-30T18:14:49.220Z,18.77
2022-11-30T18:17:17.114Z,17.37
2022-11-30T18:19:44.902Z,18.10
2022-11-30T18:22:14.063Z,20.00
2022-11-30T18:24:42.258Z,18.40
2022-11-30T18:27:10.044Z,18.70
2022-11-30T18:29:37.774Z,18.37
2022-11-30T18:32:06.105Z,18.37
2022-11-30T18:34:33.855Z,18.83
2022-11-30T18:37:01.667Z,19.20
2022-11-30T18:39:30.848Z,18.60
2022-11-30T18:41:58.627Z,18.63
2022-11-30T18:44:26.424Z,17.93
2022-11-30T18:46:54.160Z,17.70
2022-11-30T18:49:22.630Z,18.77
2022-11-30T18:51:50.383Z,18.83
2022-11-30T18:54:19.141Z,18.80
2022-11-30T18:56:48.306Z,18.43
2022-11-30T18:59:16.613Z,22.20
2022-11-30T19:01:44.597Z,19.20
2022-11-30T19:04:12.568Z,21.03
2022-11-30T19:06:42.655Z,20.47
2022-11-30T19:09:12.518Z,19.20
2022-11-30T19:11:41.589Z,18.97
2022-11-30T19:14:13.980Z,19.40
2022-11-30T19:16:42.195Z,20.60
2022-11-30T19:19:13.779Z,19.80
2022-11-30T19:21:44.168Z,20.73
2022-11-30T19:24:12.140Z,19.70
2022-11-30T19:26:40.622Z,19.87
2022-11-30T19:29:11.829Z,20.47
2022-11-30T19:31:40.231Z,19.83
2022-11-30T19:34:12.508Z,20.60
2022-11-30T19:36:41.628Z,20.00
2022-11-30T19:39:10.696Z,20.33
2022-11-30T19:41:38.529Z,21.90
2022-11-30T19:44:06.350Z,21.10
2022-11-30T19:46:35.518Z,21.40
2022-11-30T19:49:03.547Z,22.23
2022-11-30T19:51:32.304Z,22.20
2022-11-30T19:54:02.108Z,22.97
2022-11-30T19:56:32.146Z,21.83
2022-11-30T19:59:05.182Z,22.33
2022-11-30T20:01:35.611Z,22.10
2022-11-30T20:04:04.089Z,23.27
2022-11-30T20:06:33.934Z,22.00
2022-11-30T20:09:02.054Z,22.10
2022-11-30T20:11:30.395Z,23.27
2022-11-30T20:14:00.110Z,22.13
2022-11-30T20:16:29.031Z,23.30
2022-11-30T20:19:00.664Z,27.73
2022-11-30T20:21:30.514Z,22.50
2022-11-30T20:23:59.960Z,23.03
2022-11-30T20:26:29.982Z,23.00
2022-11-30T20:28:59.230Z,23.20
2022-11-30T20:31:28.821Z,22.80
2022-11-30T20:33:59.173Z,22.87
2022-11-30T20:36:27.389Z,24.40
2022-11-30T20:38:55.432Z,23.23
2022-11-30T20:41:25.051Z,22.57
2022-11-30T20:43:53.375Z,22.43
2022-11-30T20:46:23.927Z,23.47
2022-11-30T20:48:52.322Z,23.07
2022-11-30T20:51:32.557Z,23.87
2022-11-30T20:54:02.408Z,23.57
2022-11-30T20:56:32.430Z,24.73
2022-11-30T20:59:02.787Z,24.40
2022-11-30T21:01:32.924Z,23.77
2022-11-30T21:04:01.851Z,23.70
2022-11-30T21:06:31.324Z,23.80
2022-11-30T21:09:00.021Z,22.77
2022-11-30T21:11:29.645Z,24.30
2022-11-30T21:13:58.615Z,23.47
2022-11-30T21:16:29.137Z,24.57
2022-11-30T21:18:58.432Z,23.63
2022-11-30T21:21:28.388Z,23.90
2022-11-30T21:23:59.269Z,24.77
2022-11-30T21:26:29.652Z,23.63
2022-11-30T21:29:01.838Z,24.30
2022-11-30T21:31:30.092Z,23.60
2022-11-30T21:33:58.089Z,25.43
2022-11-30T21:36:26.068Z,24.13
2022-11-30T21:39:06.145Z,24.27
2022-11-30T21:41:34.732Z,24.57
2022-11-30T21:44:02.698Z,23.90
2022-11-30T21:46:30.889Z,25.30
2022-11-30T21:48:59.146Z,25.47
2022-11-30T21:51:29.102Z,22.40
2022-11-30T21:53:59.971Z,24.73
2022-11-30T21:56:29.962Z,23.17
2022-11-30T21:58:58.142Z,23.07
2022-11-30T22:01:28.520Z,23.83
2022-11-30T22:03:58.151Z,24.43
2022-11-30T22:06:27.241Z,24.00
2022-11-30T22:09:03.337Z,23.60
2022-11-30T22:11:32.284Z,22.80
2022-11-30T22:14:00.078Z,23.77
2022-11-30T22:16:35.347Z,23.80
2022-11-30T22:19:05.098Z,23.83
2022-11-30T22:21:33.389Z,24.63
2022-11-30T22:24:04.116Z,23.63
2022-11-30T22:26:34.153Z,23.57
2022-11-30T22:29:03.892Z,23.50
2022-11-30T22:31:33.722Z,23.40
2022-11-30T22:34:02.007Z,22.57
2022-11-30T22:36:31.900Z,24.17
2022-11-30T22:39:00.966Z,23.13
2022-11-30T22:41:30.833Z,23.63
2022-11-30T22:43:59.366Z,22.73
2022-11-30T22:46:29.218Z,23.93
2022-11-30T22:48:59.861Z,23.07
2022-11-30T22:51:29.273Z,23.87
2022-11-30T22:53:58.480Z,23.43
2022-11-30T22:56:28.111Z,23.40
2022-11-30T22:59:00.609Z,23.20
2022-11-30T23:01:30.240Z,23.47
2022-11-30T23:04:02.559Z,22.43
2022-11-30T23:06:30.483Z,22.60
2022-11-30T23:08:59.227Z,22.60
2022-11-30T23:11:28.744Z,22.40
2022-11-30T23:13:58.623Z,21.70
2022-11-30T23:16:26.878Z,22.20
2022-11-30T23:18:57.222Z,23.03
2022-11-30T23:21:27.264Z,22.17
2022-11-30T23:23:56.473Z,23.10
2022-11-30T23:26:26.581Z,23.03
2022-11-30T23:28:59.479Z,23.43
2022-11-30T23:31:32.961Z,23.13
2022-11-30T23:34:04.754Z,23.17
2022-11-30T23:36:33.303Z,23.13
2022-11-30T23:39:02.758Z,24.10
2022-11-30T23:41:30.568Z,23.90
2022-11-30T23:43:59.707Z,24.00
2022-11-30T23:46:27.655Z,23.03
2022-11-30T23:48:55.970Z,24.77
2022-11-30T23:51:24.539Z,25.63
2022-11-30T23:53:52.436Z,23.83
2022-11-30T23:56:22.094Z,25.57
2022-11-30T23:58:50.869Z,24.23
